Time;durP1;ratioP1;P1;durP2;ratioP2;P2;SDS_P1;SDS_P2;PMS_P1;PMS_P2;Temp;Humidity;BMP_temperature;BMP_pressure;BME280_temperature;BME280_humidity;BME280_pressure;Samples;Min_cycle;Max_cycle;Signal;HPM_P1;HPM_P2
2023/12/26 15:51:26;;;;;;;35.08;17.80;;;;;;;13.69;47.93;99669.22;5054188;27;20393;-27
2023/12/26 15:53:52;;;;;;;44.53;19.88;;;;;;;13.48;48.68;99665.97;5027824;28;20045;-28
2023/12/26 15:56:29;;;;;;;48.65;23.67;;;;;;;13.25;49.12;99663.94;5033670;28;20017;-28
2023/12/26 15:58:54;;;;;;;48.88;20.25;;;;;;;13.42;49.32;99666.03;5030797;28;20030;-28
2023/12/26 16:01:20;;;;;;;48.42;17.83;;;;;;;13.31;48.93;99664.94;5028167;28;20032;-28
2023/12/26 16:03:50;;;;;;;41.00;17.02;;;;;;;13.16;49.23;99662.59;5027971;28;20481;-28
2023/12/26 16:06:23;;;;;;;42.17;18.65;;;;;;;13.30;48.58;99661.44;5027922;28;20097;-27
2023/12/26 16:08:49;;;;;;;37.53;17.02;;;;;;;12.80;49.77;99658.03;5027814;28;20454;-26
2023/12/26 16:11:15;;;;;;;31.70;14.55;;;;;;;12.53;49.86;99655.59;5027813;28;20052;-27
2023/12/26 16:13:41;;;;;;;30.38;14.55;;;;;;;12.53;50.24;99655.59;5026452;28;20079;-28
2023/12/26 16:16:06;;;;;;;35.28;14.77;;;;;;;12.61;49.89;99649.19;5026229;28;20052;-28
2023/12/26 16:18:32;;;;;;;32.65;13.65;;;;;;;12.47;50.05;99651.97;5037113;28;20082;-28
2023/12/26 16:20:57;;;;;;;28.88;14.00;;;;;;;12.46;50.70;99654.84;5032222;28;20036;-29
2023/12/26 16:23:25;;;;;;;30.90;14.77;;;;;;;12.45;50.70;99650.53;5035793;28;20104;-27
2023/12/26 16:25:50;;;;;;;32.00;14.75;;;;;;;12.31;51.04;99639.94;5034594;28;20489;-28
2023/12/26 16:28:16;;;;;;;36.28;14.95;;;;;;;12.23;51.66;99640.22;5027183;28;20029;-28
2023/12/26 16:30:41;;;;;;;45.95;21.33;;;;;;;12.36;51.95;99638.50;5035658;28;20043;-28
2023/12/26 16:33:07;;;;;;;38.35;18.98;;;;;;;12.25;52.02;99643.50;5041589;28;20112;-30
2023/12/26 16:35:32;;;;;;;53.40;25.40;;;;;;;12.03;52.84;99644.88;5046588;28;20530;-28
2023/12/26 16:37:58;;;;;;;66.18;31.67;;;;;;;12.08;53.13;99645.06;5047263;28;20074;-28
2023/12/26 16:40:23;;;;;;;54.80;27.13;;;;;;;12.09;53.15;99646.72;5047053;28;20017;-27
2023/12/26 16:42:49;;;;;;;71.68;31.20;;;;;;;11.91;53.78;99640.22;5037020;28;20025;-28
2023/12/26 16:45:20;;;;;;;66.60;29.60;;;;;;;11.88;54.28;99637.13;5039923;28;20057;-28
2023/12/26 16:47:46;;;;;;;51.22;26.15;;;;;;;11.80;54.38;99638.22;5035120;28;20030;-28
2023/12/26 16:50:11;;;;;;;46.67;22.98;;;;;;;11.53;55.47;99646.34;5036077;28;20056;-28
2023/12/26 16:52:37;;;;;;;56.08;24.98;;;;;;;11.52;55.26;99651.91;5024086;28;20083;-29
2023/12/26 16:55:02;;;;;;;52.05;24.90;;;;;;;11.71;54.99;99647.50;5026382;28;20025;-27
2023/12/26 16:57:29;;;;;;;48.28;24.52;;;;;;;11.61;55.08;99652.47;5024054;28;20123;-29
2023/12/26 16:59:55;;;;;;;54.85;24.63;;;;;;;11.70;54.88;99649.34;5022282;28;20014;-28
2023/12/26 17:02:21;;;;;;;53.40;25.27;;;;;;;11.74;54.15;99642.56;5025210;28;20115;-27
2023/12/26 17:04:46;;;;;;;52.38;25.40;;;;;;;11.55;55.21;99668.25;5025021;28;20053;-26
2023/12/26 17:07:12;;;;;;;48.42;24.30;;;;;;;11.54;55.78;99673.84;5025188;28;20033;-28
2023/12/26 17:09:41;;;;;;;58.10;25.20;;;;;;;11.74;55.06;99674.53;5022136;28;20025;-27
2023/12/26 17:12:10;;;;;;;54.20;23.73;;;;;;;11.82;56.85;99662.84;5020222;28;20021;-27
2023/12/26 17:14:36;;;;;;;53.35;24.75;;;;;;;12.02;55.34;99676.06;5022656;28;20096;-28
2023/12/26 17:17:01;;;;;;;54.30;25.05;;;;;;;11.81;55.83;99679.84;5022011;28;20507;-28
2023/12/26 17:19:27;;;;;;;71.45;32.80;;;;;;;11.37;56.83;99673.47;5022260;28;20043;-27
2023/12/26 17:21:52;;;;;;;79.30;37.47;;;;;;;11.39;57.22;99690.06;5026703;28;20037;-27
2023/12/26 17:24:19;;;;;;;73.53;31.65;;;;;;;11.42;56.83;99691.50;5022718;28;20032;-27
2023/12/26 17:26:44;;;;;;;59.22;28.98;;;;;;;11.31;57.46;99677.00;5025136;28;20037;-27
2023/12/26 17:29:10;;;;;;;61.33;27.42;;;;;;;11.42;57.74;99694.97;5028543;28;20025;-27
2023/12/26 17:31:35;;;;;;;66.00;32.17;;;;;;;11.42;57.99;99694.97;5033944;28;20659;-26
2023/12/26 17:34:01;;;;;;;64.93;31.13;;;;;;;11.41;58.95;99696.00;5033705;28;20021;-28
2023/12/26 17:36:27;;;;;;;59.83;28.60;;;;;;;11.35;57.61;99687.00;5033557;28;20435;-28
2023/12/26 17:38:52;;;;;;;52.65;26.08;;;;;;;11.11;57.62;99696.47;5033448;28;20374;-27
2023/12/26 17:41:18;;;;;;;58.10;26.00;;;;;;;10.65;59.47;99691.22;5033161;28;20451;-27
2023/12/26 17:43:44;;;;;;;49.10;23.67;;;;;;;10.89;57.95;99695.91;5034022;28;20029;-27
2023/12/26 17:46:10;;;;;;;42.50;22.42;;;;;;;10.88;57.46;99682.81;5033975;28;20029;-28
2023/12/26 17:48:36;;;;;;;45.90;22.85;;;;;;;11.00;57.86;99698.97;5033345;28;20036;-26
2023/12/26 17:51:01;;;;;;;50.00;22.63;;;;;;;10.88;57.65;99701.44;5033274;28;20042;-27
2023/12/26 17:53:27;;;;;;;36.60;20.20;;;;;;;10.96;57.18;99696.72;5033546;28;20083;-27
2023/12/26 17:55:52;;;;;;;37.08;19.60;;;;;;;11.02;57.86;99700.38;5033368;28;20120;-25
2023/12/26 17:58:17;;;;;;;41.97;20.35;;;;;;;10.94;58.32;99689.97;5033505;28;20025;-28
2023/12/26 18:00:43;;;;;;;38.05;20.17;;;;;;;10.89;58.21;99685.28;5033157;28;20068;-28
2023/12/26 18:03:08;;;;;;;40.00;19.50;;;;;;;11.07;58.36;99687.28;5032659;28;20037;-27
2023/12/26 18:05:33;;;;;;;36.75;18.05;;;;;;;11.05;58.90;99681.34;5033413;28;20064;-31
2023/12/26 18:07:59;;;;;;;37.08;16.80;;;;;;;10.98;59.71;99690.38;5033214;28;20124;-28
2023/12/26 18:10:24;;;;;;;35.45;18.60;;;;;;;10.81;60.20;99679.34;5033136;28;20458;-27
2023/12/26 18:12:49;;;;;;;31.77;16.50;;;;;;;10.92;60.73;99684.84;5033023;28;20029;-27
2023/12/26 18:15:15;;;;;;;33.50;15.80;;;;;;;10.82;60.43;99687.13;5032950;28;20061;-27
2023/12/26 18:17:42;;;;;;;29.98;16.92;;;;;;;10.93;60.20;99681.16;5032595;28;20451;-27
2023/12/26 18:20:09;;;;;;;34.00;16.48;;;;;;;11.05;60.62;99689.34;5032641;28;20044;-28
2023/12/26 18:22:34;;;;;;;33.20;17.10;;;;;;;10.98;60.18;99687.72;5032669;28;20057;-26
2023/12/26 18:25:00;;;;;;;32.63;17.10;;;;;;;11.12;59.73;99687.47;5032721;28;20064;-27
2023/12/26 18:27:25;;;;;;;36.53;17.55;;;;;;;11.14;60.68;99674.78;5032759;28;20056;-28
2023/12/26 18:29:50;;;;;;;31.35;16.85;;;;;;;11.19;60.54;99676.78;5032830;28;20034;-28
2023/12/26 18:32:16;;;;;;;32.78;17.13;;;;;;;11.05;60.48;99680.53;5032668;28;20036;-27
2023/12/26 18:34:41;;;;;;;37.05;19.33;;;;;;;11.04;60.77;99685.06;5032805;28;20108;-27
2023/12/26 18:37:07;;;;;;;35.70;18.63;;;;;;;11.01;61.39;99671.34;5032734;28;20021;-27
2023/12/26 18:39:32;;;;;;;42.58;19.20;;;;;;;10.95;61.31;99655.16;5032531;28;20063;-27
2023/12/26 18:41:58;;;;;;;39.20;19.05;;;;;;;10.93;60.65;99669.72;5032349;28;20034;-27
2023/12/26 18:44:23;;;;;;;37.72;18.95;;;;;;;10.77;61.63;99670.94;5032586;28;20469;-27
2023/12/26 18:46:49;;;;;;;33.53;19.40;;;;;;;10.97;61.50;99678.91;5032878;28;20176;-28
2023/12/26 18:49:14;;;;;;;33.92;18.10;;;;;;;10.98;60.18;99677.06;5032126;28;20513;-28
2023/12/26 18:51:40;;;;;;;38.58;17.80;;;;;;;10.99;59.76;99682.19;5032085;28;20103;-27
2023/12/26 18:54:05;;;;;;;33.20;16.63;;;;;;;11.02;60.14;99675.63;5032105;28;20083;-26
2023/12/26 18:56:31;;;;;;;29.55;15.48;;;;;;;10.89;60.01;99685.28;5032401;28;20029;-27
2023/12/26 18:58:58;;;;;;;34.55;18.02;;;;;;;10.98;59.38;99685.03;5031994;28;20025;-27
2023/12/26 19:01:24;;;;;;;52.75;22.92;;;;;;;11.03;59.29;99683.41;5032142;28;20489;-28
2023/12/26 19:03:50;;;;;;;65.35;30.27;;;;;;;10.93;59.90;99665.19;5032389;28;20560;-28
2023/12/26 19:06:16;;;;;;;51.85;23.20;;;;;;;10.64;61.20;99669.13;5032308;28;20492;-28
2023/12/26 19:08:42;;;;;;;47.15;21.67;;;;;;;10.67;61.74;99668.69;5032039;28;20032;-27
2023/12/26 19:11:13;;;;;;;45.08;21.80;;;;;;;10.68;60.77;99673.00;5032341;28;20048;-27
2023/12/26 19:13:39;;;;;;;54.28;24.67;;;;;;;10.55;60.99;99684.47;5031697;28;20115;-27
2023/12/26 19:16:05;;;;;;;48.92;26.17;;;;;;;10.47;60.63;99683.84;5032022;28;20072;-27
2023/12/26 19:18:31;;;;;;;54.55;27.13;;;;;;;10.43;61.82;99687.94;5031993;28;20037;-29
2023/12/26 19:20:56;;;;;;;54.28;26.23;;;;;;;10.41;61.28;99685.47;5032176;28;20030;-27
2023/12/26 19:23:22;;;;;;;49.55;25.08;;;;;;;10.16;61.19;99682.56;5032093;28;20025;-27
2023/12/26 19:25:47;;;;;;;45.17;23.33;;;;;;;9.92;62.28;99683.94;5031967;28;20384;-27
2023/12/26 19:28:13;;;;;;;41.53;22.13;;;;;;;9.92;61.77;99682.09;5031699;28;20025;-28
2023/12/26 19:30:38;;;;;;;39.88;21.00;;;;;;;10.22;61.66;99686.25;5031619;28;20523;-27
2023/12/26 19:33:04;;;;;;;45.45;22.80;;;;;;;9.79;61.37;99684.72;5032021;28;20105;-27
2023/12/26 19:35:30;;;;;;;45.58;23.55;;;;;;;9.64;62.21;99684.88;5031717;28;20029;-27
2023/12/26 19:37:56;;;;;;;43.53;22.45;;;;;;;9.65;63.12;99701.63;5031986;28;20033;-27
2023/12/26 19:40:22;;;;;;;48.55;23.10;;;;;;;9.81;62.13;99692.50;5031650;28;20021;-27
2023/12/26 19:42:47;;;;;;;45.33;23.20;;;;;;;9.83;62.54;99706.41;5031891;28;20029;-27
2023/12/26 19:45:13;;;;;;;47.70;22.85;;;;;;;9.35;63.16;99704.56;5031624;28;20112;-27
2023/12/26 19:47:38;;;;;;;46.22;23.23;;;;;;;9.23;63.88;99714.91;5032002;28;20145;-28
2023/12/26 19:50:04;;;;;;;47.13;23.58;;;;;;;9.64;61.86;99718.59;5031336;28;20429;-28
2023/12/26 19:52:30;;;;;;;45.13;23.23;;;;;;;9.26;63.76;99697.78;5031813;28;20056;-27
2023/12/26 19:54:55;;;;;;;47.30;23.95;;;;;;;9.34;63.89;99729.47;5030460;28;20084;-28
2023/12/26 19:57:22;;;;;;;46.40;22.70;;;;;;;9.06;64.86;99727.66;5031517;28;20040;-27
2023/12/26 19:59:48;;;;;;;48.22;25.30;;;;;;;9.22;64.84;99726.56;5031426;28;20105;-29
2023/12/26 20:02:13;;;;;;;50.78;25.33;;;;;;;9.46;63.43;99719.94;5031183;28;20129;-40
2023/12/26 20:04:39;;;;;;;50.13;25.98;;;;;;;9.42;64.32;99715.22;5031101;28;20025;-40
2023/12/26 20:07:05;;;;;;;59.38;23.80;;;;;;;9.15;64.56;99720.38;5031392;28;20378;-39
2023/12/26 20:09:30;;;;;;;47.40;25.63;;;;;;;9.12;65.72;99710.13;5031011;28;20033;-42
2023/12/26 20:11:56;;;;;;;53.95;25.20;;;;;;;9.06;64.65;99724.19;5030536;28;20026;-41
2023/12/26 20:14:21;;;;;;;46.28;24.00;;;;;;;9.06;65.92;99722.34;5030771;28;20080;-39
2023/12/26 20:16:48;;;;;;;42.65;22.73;;;;;;;9.09;65.83;99719.31;5030752;28;20075;-41
2023/12/26 20:19:15;;;;;;;43.30;22.67;;;;;;;8.99;64.81;99727.63;5030514;28;20064;-40
2023/12/26 20:21:41;;;;;;;44.25;21.50;;;;;;;8.97;64.69;99723.53;5020280;28;20644;-40
2023/12/26 20:24:10;;;;;;;43.17;22.65;;;;;;;8.61;65.85;99727.13;5021100;28;20083;-40
2023/12/26 20:26:51;;;;;;;47.38;22.00;;;;;;;8.74;65.41;99727.22;5020136;28;20030;-40
2023/12/26 20:29:20;;;;;;;;;;;;;;;8.88;65.04;99722.84;5014804;28;20049;-41
2023/12/26 20:31:48;;;;;;;39.75;20.55;;;;;;;8.65;65.45;99711.66;5014216;28;20361;-40
2023/12/26 20:34:15;;;;;;;41.35;19.80;;;;;;;8.65;65.10;99730.22;5023718;28;20037;-38
2023/12/26 20:36:44;;;;;;;39.42;19.48;;;;;;;8.71;65.24;99726.78;5023378;28;20044;-40
2023/12/26 20:39:12;;;;;;;35.08;19.48;;;;;;;8.85;64.83;99728.53;5024935;28;20481;-40
2023/12/26 20:41:38;;;;;;;34.75;18.70;;;;;;;8.88;64.40;99736.09;5022829;28;20120;-40
2023/12/26 20:44:04;;;;;;;37.28;19.20;;;;;;;8.96;64.15;99743.91;5023916;28;20036;-41
2023/12/26 20:46:29;;;;;;;35.08;17.75;;;;;;;8.84;64.04;99742.00;5023880;28;20026;-41
2023/12/26 20:48:54;;;;;;;38.03;19.67;;;;;;;8.90;64.65;99752.66;5025549;28;20033;-43
2023/12/26 20:51:20;;;;;;;35.92;17.83;;;;;;;8.62;64.53;99747.31;5022053;28;20041;-45
2023/12/26 20:53:48;;;;;;;30.48;16.33;;;;;;;8.96;63.34;99757.19;5014308;28;20057;-42
2023/12/26 20:56:14;;;;;;;32.47;16.38;;;;;;;8.78;64.83;99752.38;5014148;28;20516;-42
2023/12/26 20:58:40;;;;;;;30.02;15.45;;;;;;;8.79;65.28;99747.88;5013557;28;20026;-41
2023/12/26 21:01:05;;;;;;;32.65;16.13;;;;;;;8.64;64.32;99753.25;5014033;28;20053;-42
2023/12/26 21:03:31;;;;;;;26.85;14.52;;;;;;;8.75;64.09;99751.94;5014139;28;20032;-40
2023/12/26 21:05:56;;;;;;;30.15;14.75;;;;;;;8.58;64.05;99746.88;5013636;28;20536;-43
2023/12/26 21:08:22;;;;;;;25.38;13.80;;;;;;;8.95;62.86;99747.59;5013738;28;20058;-41
2023/12/26 21:10:47;;;;;;;26.25;13.32;;;;;;;9.00;62.36;99754.97;5013196;28;20421;-38
2023/12/26 21:13:12;;;;;;;22.45;13.35;;;;;;;9.06;61.94;99756.03;5013586;28;20462;-39
2023/12/26 21:15:38;;;;;;;24.75;13.60;;;;;;;9.02;61.94;99757.44;5028229;28;20362;-39
2023/12/26 21:18:05;;;;;;;23.92;13.10;;;;;;;8.87;62.57;99755.72;5033646;28;20029;-38
2023/12/26 21:20:31;;;;;;;26.48;13.75;;;;;;;8.83;62.83;99759.75;5033513;28;20020;-40
2023/12/26 21:22:56;;;;;;;29.90;14.82;;;;;;;8.92;63.10;99760.44;5032765;28;20029;-38
2023/12/26 21:25:22;;;;;;;30.05;14.82;;;;;;;8.91;64.35;99764.94;5033111;28;20040;-40
2023/12/26 21:27:47;;;;;;;35.70;17.13;;;;;;;8.78;63.58;99772.78;5032666;28;20044;-39
2023/12/26 21:30:13;;;;;;;29.75;15.25;;;;;;;8.68;64.27;99765.16;5033006;28;20022;-43
2023/12/26 21:32:38;;;;;;;29.25;15.52;;;;;;;8.79;63.52;99777.88;5033129;28;20545;-40
2023/12/26 21:35:07;;;;;;;30.50;14.90;;;;;;;8.54;63.93;99779.28;5033212;28;20531;-40
2023/12/26 21:37:32;;;;;;;27.27;15.13;;;;;;;8.56;64.01;99790.53;5032898;28;20519;-40
2023/12/26 21:40:00;;;;;;;29.33;14.75;;;;;;;8.57;63.86;99793.00;5032856;28;20021;-40
2023/12/26 21:42:26;;;;;;;28.73;15.30;;;;;;;8.52;63.33;99799.88;5032564;28;20053;-37
2023/12/26 21:44:51;;;;;;;30.60;16.17;;;;;;;8.66;63.60;99800.81;5033065;28;20064;-39
2023/12/26 21:47:18;;;;;;;32.28;16.08;;;;;;;8.61;63.75;99806.69;5032777;28;20033;-38
2023/12/26 21:49:43;;;;;;;28.15;14.60;;;;;;;8.66;63.70;99812.25;5032026;28;20056;-40
2023/12/26 21:52:09;;;;;;;31.60;15.45;;;;;;;8.52;62.84;99813.13;5032542;28;20033;-40
2023/12/26 21:54:38;;;;;;;30.92;15.00;;;;;;;8.72;62.89;99808.00;5032967;28;20132;-39
2023/12/26 21:57:04;;;;;;;24.80;14.23;;;;;;;8.48;63.10;99812.69;5032652;28;20021;-40
2023/12/26 21:59:29;;;;;;;26.85;13.80;;;;;;;8.66;62.77;99800.81;5032569;28;20066;-40
2023/12/26 22:01:55;;;;;;;22.35;12.57;;;;;;;8.60;63.54;99811.19;5032256;28;20461;-37
2023/12/26 22:04:20;;;;;;;24.58;11.77;;;;;;;8.65;63.77;99812.47;5032303;28;20624;-40
2023/12/26 22:06:46;;;;;;;23.13;12.85;;;;;;;8.79;63.75;99820.31;5032116;28;20171;-39
2023/12/26 22:09:12;;;;;;;24.23;13.48;;;;;;;8.57;63.78;99827.47;5032157;28;20032;-40
2023/12/26 22:11:41;;;;;;;24.60;12.40;;;;;;;8.55;64.73;99826.03;5031973;28;20021;-39
2023/12/26 22:14:07;;;;;;;28.67;14.10;;;;;;;8.37;64.85;99840.47;5032066;28;20450;-39
2023/12/26 22:16:32;;;;;;;27.00;13.90;;;;;;;8.22;65.04;99834.38;5032130;28;20039;-39
2023/12/26 22:18:57;;;;;;;31.42;15.02;;;;;;;8.21;64.21;99836.22;5031754;28;20029;-40
2023/12/26 22:21:23;;;;;;;29.38;15.98;;;;;;;8.14;65.21;99830.00;5031886;28;20500;-40
2023/12/26 22:23:51;;;;;;;30.63;15.18;;;;;;;7.97;65.02;99825.94;5031734;28;20485;-40
2023/12/26 22:26:16;;;;;;;28.38;15.70;;;;;;;7.86;66.33;99824.56;5031648;28;20029;-39
2023/12/26 22:28:42;;;;;;;26.95;14.82;;;;;;;7.79;65.28;99813.06;5031598;28;20039;-37
2023/12/26 22:31:18;;;;;;;26.25;15.60;;;;;;;7.97;66.71;99816.13;5031442;28;20030;-39
2023/12/26 22:33:44;;;;;;;24.15;14.77;;;;;;;7.92;65.57;99812.41;5031463;28;20131;-38
2023/12/26 22:36:09;;;;;;;26.33;14.10;;;;;;;7.68;66.30;99829.41;5031537;28;20029;-39
2023/12/26 22:38:36;;;;;;;23.27;13.85;;;;;;;7.63;66.52;99830.78;5031155;28;20033;-40
2023/12/26 22:41:02;;;;;;;25.92;13.43;;;;;;;7.86;65.19;99823.75;5030170;28;20025;-40
2023/12/26 22:43:27;;;;;;;23.02;13.23;;;;;;;8.12;64.80;99821.44;5030865;28;20030;-41
2023/12/26 22:45:52;;;;;;;27.05;13.02;;;;;;;8.31;63.23;99821.84;5031167;28;20029;-36
2023/12/26 22:48:18;;;;;;;25.05;13.20;;;;;;;8.26;64.04;99824.22;5030873;28;20104;-40
2023/12/26 22:50:43;;;;;;;26.48;13.50;;;;;;;7.89;64.35;99812.78;5031014;28;20049;-41
2023/12/26 22:53:08;;;;;;;23.20;13.23;;;;;;;7.71;64.77;99808.69;5031218;28;20434;-40
2023/12/26 22:55:34;;;;;;;22.73;12.13;;;;;;;7.88;64.61;99824.38;5031351;28;20068;-40
2023/12/26 22:57:59;;;;;;;23.20;12.95;;;;;;;8.10;64.51;99820.78;5031075;28;20029;-40
2023/12/26 23:00:25;;;;;;;23.13;11.57;;;;;;;8.17;63.67;99821.69;5030949;28;20021;-40
2023/12/26 23:02:51;;;;;;;19.80;10.05;;;;;;;8.23;62.22;99820.13;5030870;28;20462;-40
2023/12/26 23:05:22;;;;;;;20.50;11.10;;;;;;;8.36;61.75;99812.34;5030912;28;20108;-41
2023/12/26 23:07:51;;;;;;;19.48;9.95;;;;;;;8.49;60.94;99818.81;5031056;28;20017;-40
2023/12/26 23:10:17;;;;;;;18.63;10.27;;;;;;;8.41;60.67;99817.06;5031039;28;20032;-37
2023/12/26 23:12:43;;;;;;;20.48;11.02;;;;;;;8.35;60.98;99826.59;5031016;28;20033;-40
2023/12/26 23:15:08;;;;;;;19.30;9.65;;;;;;;8.26;60.35;99824.22;5030779;28;20602;-40
2023/12/26 23:17:34;;;;;;;15.38;8.10;;;;;;;8.05;59.72;99828.47;5030694;28;20036;-39
2023/12/26 23:20:00;;;;;;;13.75;6.90;;;;;;;8.33;59.69;99823.31;5030541;28;20024;-41
2023/12/26 23:22:25;;;;;;;16.90;6.68;;;;;;;8.37;58.46;99821.09;5030701;28;20112;-41
2023/12/26 23:24:50;;;;;;;14.32;6.10;;;;;;;8.44;57.87;99816.72;5030802;28;20025;-40
2023/12/26 23:27:16;;;;;;;11.05;5.70;;;;;;;8.45;57.42;99820.19;5030755;28;20022;-40
2023/12/26 23:29:41;;;;;;;12.73;5.55;;;;;;;8.92;56.09;99829.44;5030537;28;20013;-27
2023/12/26 23:32:07;;;;;;;14.70;5.18;;;;;;;9.09;55.38;99820.19;5030636;28;20040;-27
2023/12/26 23:34:33;;;;;;;9.90;4.72;;;;;;;9.16;54.45;99820.25;5030637;28;20120;-28
2023/12/26 23:36:58;;;;;;;8.57;4.80;;;;;;;9.35;54.30;99824.91;5030442;28;20404;-28
2023/12/26 23:39:24;;;;;;;9.65;4.68;;;;;;;9.72;53.06;99836.16;5030751;28;20018;-27
2023/12/26 23:41:49;;;;;;;7.82;4.03;;;;;;;9.73;52.93;99834.34;5030528;28;20033;-28
2023/12/26 23:44:15;;;;;;;10.25;4.53;;;;;;;10.24;52.58;99835.78;5031219;28;20032;-28
2023/12/26 23:46:42;;;;;;;6.78;3.60;;;;;;;10.30;51.81;99842.97;5030478;28;20104;-27
2023/12/26 23:49:08;;;;;;;6.15;3.65;;;;;;;10.51;51.21;99837.56;5030478;28;20033;-27
2023/12/26 23:51:34;;;;;;;10.55;3.92;;;;;;;10.82;49.94;99836.19;5030734;28;20037;-28
2023/12/26 23:54:00;;;;;;;8.23;3.75;;;;;;;11.23;48.96;99832.53;5030364;28;20053;-28
2023/12/26 23:56:26;;;;;;;9.35;3.50;;;;;;;11.40;48.18;99840.09;5030308;28;20037;-27
2023/12/26 23:58:51;;;;;;;6.80;3.42;;;;;;;11.68;47.72;99843.34;5030355;28;20029;-28
